FW6701 Weather Reports


time (UTC)temp
F
wind
direction
speed
knots
gust
knots
rain 1hr
in
rain 24hr
in
rain mn
in
humidity
%
barometer
mb
20260505181626 81 216 4.3 7.8 0.00 0.00 0.00 36 1008.1
20260505181126 82 261 2.6 5.2 0.00 0.00 0.00 40 1007.9
20260505180626 81 241 0.9 6.1 0.00 0.00 0.00 38 1008.2
20260505180126 81 301 2.6 9.6 0.00 0.00 0.00 38 1008.0
20260505180110 81 21 1.7 9.6 0.00 0.00 0.00 40 1008.2
20260505175356 82 223 5.2 7.0 0.00 0.00 0.00 37 1008.2
20260505174626 82 310 0.0 6.1 0.00 0.00 0.00 39 1008.3
20260505174126 80 7 0.9 8.7 0.00 0.00 0.00 38 1008.2
20260505173625 81 283 3.5 8.7 0.00 0.00 0.00 37 1008.4
20260505173125 81 179 0.9 9.6 0.00 0.00 0.00 38 1008.3
20260505172624 81 223 3.5 9.6 0.00 0.00 0.00 41 1008.2
20260505172122 82 305 0.9 6.1 0.00 0.00 0.00 39 1008.4
20260505171623 81 56 0.0 6.1 0.00 0.00 0.00 39 1008.5
20260505171123 81 251 0.9 6.1 0.00 0.00 0.00 38 1008.5
20260505170622 81 127 3.5 7.0 0.00 0.00 0.00 37 1008.6
20260505170122 81 184 2.6 7.8 0.00 0.00 0.00 37 1008.6
20260505165622 81 264 0.9 7.8 0.00 0.00 0.00 38 1008.8
20260505165122 80 177 0.9 7.8 0.00 0.00 0.00 40 1008.8
20260505164622 81 245 0.9 6.1 0.00 0.00 0.00 40 1009.0
20260505164121 81 246 2.6 6.1 0.00 0.00 0.00 42 1008.7
20260505163621 80 88 0.9 7.0 0.00 0.00 0.00 42 1009.0
20260505163121 80 289 1.7 7.0 0.00 0.00 0.00 41 1008.8
20260505162622 80 297 1.7 5.2 0.00 0.00 0.00 43 1009.0
20260505162122 80 240 0.9 5.2 0.00 0.00 0.00 42 1009.1
20260505161621 79 285 1.7 6.1 0.00 0.00 0.00 45 1009.3
20260505161345 79 263 2.6 6.1 0.00 0.00 0.00 44 1009.2
20260505160621 79 204 0.9 3.5 0.00 0.00 0.00 43 1009.2
20260505160121 79 324 0.0 2.6 0.00 0.00 0.00 45 1009.4
20260505153121 78 243 0.9 5.2 0.00 0.00 0.00 44 1009.3
20260505152620 78 220 0.9 5.2 0.00 0.00 0.00 47 1009.3
20260505152121 78 266 1.7 5.2 0.00 0.00 0.00 45 1009.4
20260505151621 76 271 0.9 7.0 0.00 0.00 0.00 47 1009.2
20260505151120 76 240 0.9 7.0 0.00 0.00 0.00 45 1009.4
20260505150621 76 117 1.7 5.2 0.00 0.00 0.00 48 1009.5
20260505150550 76 257 0.9 6.1 0.00 0.00 0.00 46 1009.6
20260505150213 77 218 0.0 6.1 0.00 0.00 0.00 45 1009.4
20260505140620 72 278 2.6 6.1 0.00 0.00 0.00 54 1010.1
20260505140340 72 9 0.0 6.1 0.00 0.00 0.00 53 1010.0
20260505130121 68 197 0.9 3.5 0.00 0.00 0.00 59 1010.6
20260505124621 67 133 0.0 1.7 0.00 0.00 0.00 62 1010.8
20260505124121 67 146 0.9 1.7 0.00 0.00 0.00 64 1010.5
20260505123621 66 37 0.0 1.7 0.00 0.00 0.00 68 1010.6
20260505123339 65 331 0.0 1.7 0.00 0.00 0.00 66 1010.4
20260505122621 64 111 0.0 1.7 0.00 0.00 0.00 68 1010.6
20260505122121 63 306 0.0 0.9 0.00 0.00 0.00 70 1010.4
20260505121621 62 306 0.0 0.9 0.00 0.00 0.00 71 1010.4
20260505121121 61 306 0.0 0.0 0.00 0.00 0.00 72 1010.6
20260505120844 60 306 0.0 0.0 0.00 0.00 0.00 75 1010.3
20260505120121 59 306 0.0 0.0 0.00 0.00 0.00 78 1010.3
20260505115621 58 306 0.0 0.0 0.00 0.00 0.00 80 1010.3
20260505115342 58 306 0.0 0.0 0.00 0.00 0.00 80 1010.4
20260505114621 57 306 0.0 0.0 0.00 0.00 0.00 80 1010.2
20260505114121 56 306 0.0 0.0 0.00 0.00 0.00 81 1010.2
20260505113621 55 306 0.0 0.0 0.00 0.00 0.00 85 1010.2
20260505113342 54 306 0.0 0.0 0.00 0.00 0.00 87 1010.2
20260505112621 53 306 0.0 0.0 0.00 0.00 0.00 89 1010.0
20260505112121 51 306 0.0 0.0 0.00 0.00 0.00 90 1010.0
20260505111620 50 306 0.0 0.0 0.00 0.00 0.00 91 1010.0
20260505111121 50 305 0.0 0.0 0.00 0.00 0.00 92 1010.1
20260505110620 49 306 0.0 0.0 0.00 0.00 0.00 93 1010.0
20260505110121 48 306 0.0 0.0 0.00 0.00 0.00 93 1010.0
20260505102120 47 306 0.0 0.0 0.00 0.00 0.00 94 1009.7
20260505102110 47 306 0.0 0.0 0.00 0.00 0.00 94 1009.6
20260505101347 47 306 0.0 0.0 0.00 0.00 0.00 94 1009.6
20260505100621 47 306 0.0 0.0 0.00 0.00 0.00 94 1009.6
20260505100120 47 306 0.0 0.0 0.00 0.00 0.00 94 1009.3
20260505095620 47 306 0.0 0.0 0.00 0.00 0.00 94 1009.4
20260505095121 47 306 0.0 0.0 0.00 0.00 0.00 94 1009.3
20260505094621 47 306 0.0 0.0 0.00 0.00 0.00 94 1009.6
20260505094121 48 306 0.0 0.0 0.00 0.00 0.00 93 1009.4
20260505093621 48 306 0.0 0.0 0.00 0.00 0.00 93 1009.7
20260505093121 48 306 0.0 0.0 0.00 0.00 0.00 93 1009.1
20260505092621 48 306 0.0 0.0 0.00 0.00 0.00 93 1009.1
20260505092120 48 306 0.0 0.0 0.00 0.00 0.00 92 1009.4
20260505091840 49 306 0.0 0.0 0.00 0.00 0.00 92 1009.4
20260505091120 49 306 0.0 0.0 0.00 0.00 0.00 92 1009.4
20260505090844 49 306 0.0 0.0 0.00 0.00 0.00 92 1009.3
20260505090121 49 306 0.0 0.0 0.00 0.00 0.00 92 1009.3
20260505085620 49 306 0.0 0.0 0.00 0.00 0.00 92 1009.1
20260505085341 50 306 0.0 0.0 0.00 0.00 0.00 92 1009.0
20260505084842 50 306 0.0 0.0 0.00 0.00 0.00 92 1009.1
20260505084121 50 306 0.0 0.0 0.00 0.00 0.00 92 1009.2
20260505083620 50 306 0.0 0.0 0.00 0.00 0.00 91 1009.2
20260505083120 50 306 0.0 0.0 0.00 0.00 0.00 91 1009.2
20260505082844 51 306 0.0 0.0 0.00 0.00 0.00 90 1009.0
20260505082121 51 306 0.0 0.0 0.00 0.00 0.00 90 1009.1
20260505082109 51 306 0.0 0.0 0.00 0.00 0.00 89 1009.0
20260505081121 52 306 0.0 0.0 0.00 0.00 0.00 89 1009.1
20260505080621 52 306 0.0 0.0 0.00 0.00 0.00 88 1009.1
20260505080121 52 306 0.0 0.0 0.00 0.00 0.00 88 1008.9
20260505075837 53 306 0.0 0.0 0.00 0.00 0.00 88 1009.0
20260505075121 53 306 0.0 0.0 0.00 0.00 0.00 86 1009.1
20260505074621 53 306 0.0 0.0 0.00 0.00 0.00 87 1009.0
20260505074347 53 306 0.0 0.0 0.00 0.00 0.00 85 1009.1
20260505073620 54 306 0.0 0.0 0.00 0.00 0.00 86 1008.9
20260505073120 54 306 0.0 0.0 0.00 0.00 0.00 86 1008.9
20260505072620 55 306 0.0 0.0 0.00 0.00 0.00 86 1008.8
20260505072120 55 306 0.0 0.0 0.00 0.00 0.00 86 1008.7
20260505071620 55 306 0.0 0.0 0.00 0.00 0.00 85 1008.7
20260505071120 55 306 0.0 0.0 0.00 0.00 0.00 85 1008.9
20260505070620 55 306 0.0 0.0 0.00 0.00 0.00 85 1008.9
20260505070120 55 306 0.0 0.0 0.00 0.00 0.00 84 1008.8
20260505065620 55 306 0.0 0.0 0.00 0.00 0.00 83 1008.8
20260505065120 56 306 0.0 0.0 0.00 0.00 0.00 82 1009.0
20260505064620 56 306 0.0 0.0 0.00 0.00 0.00 82 1008.9
20260505064119 56 306 0.0 0.0 0.00 0.00 0.00 82 1008.9
20260505064114 57 306 0.0 0.0 0.00 0.00 0.00 81 1008.9
20260505063120 57 306 0.0 0.0 0.00 0.00 0.00 81 1009.2
20260505062611 57 306 0.0 0.0 0.00 0.00 0.00 80 1009.1
20260505062606 57 306 0.0 0.0 0.00 0.00 0.00 81 1009.1
20260505061555 57 306 0.0 0.0 0.00 0.00 0.00 82 1009.0
20260505061055 57 306 0.0 0.0 0.00 0.00 0.00 80 1009.1
20260505060555 57 306 0.0 0.0 0.00 0.00 0.00 80 1009.1
20260505060044 56 306 0.0 0.0 0.00 0.00 0.00 79 1009.1
20260505060032 56 306 0.0 0.0 0.00 0.00 0.00 79 1009.2
20260505055044 57 306 0.0 0.0 0.00 0.00 0.00 79 1009.0
20260505054531 57 306 0.0 0.0 0.00 0.00 0.00 80 1008.8
20260505054031 57 306 0.0 0.0 0.00 0.00 0.00 78 1009.0
20260505053531 57 306 0.0 0.0 0.00 0.00 0.00 77 1009.1
20260505053031 56 7 0.0 0.0 0.00 0.00 0.00 74 1009.0
20260505052531 56 7 0.0 0.0 0.00 0.00 0.00 78 1009.1
20260505052032 56 7 0.0 0.0 0.00 0.00 0.00 78 1009.3
20260505051532 56 7 0.0 0.0 0.00 0.00 0.00 77 1009.0
20260505051032 56 7 0.0 0.0 0.00 0.00 0.00 77 1009.2
20260505050759 56 7 0.0 0.0 0.00 0.00 0.00 77 1009.1
20260505041455 56 7 0.0 0.0 0.00 0.00 0.00 78 1008.7
20260505040956 56 7 0.0 0.0 0.00 0.00 0.00 76 1008.9
20260505040444 56 7 0.0 0.0 0.00 0.00 0.00 76 1008.8
20260505035944 56 7 0.0 0.0 0.00 0.00 0.00 74 1009.0
20260505035444 57 7 0.0 0.0 0.00 0.00 0.00 71 1009.0
20260505034931 58 6 0.0 0.0 0.00 0.00 0.00 68 1008.8
20260505034648 58 6 0.0 0.0 0.00 0.00 0.00 68 1008.7
20260505034151 58 6 0.0 0.0 0.00 0.00 0.00 68 1008.6
20260505033420 59 6 0.0 0.0 0.00 0.00 0.00 70 1009.0
20260505032920 60 7 0.0 0.0 0.00 0.00 0.00 69 1008.8
20260505032640 61 7 0.0 0.0 0.00 0.00 0.00 65 1008.8
20260505031919 62 6 0.0 0.9 0.00 0.00 0.00 62 1009.1
20260505031419 63 9 0.0 0.9 0.00 0.00 0.00 58 1008.7
20260505031146 63 59 0.0 0.0 0.00 0.00 0.00 56 1008.6
20260505030647 64 4 0.0 0.0 0.00 0.00 0.00 57 1008.8
20260505025920 65 14 0.0 1.7 0.00 0.00 0.00 53 1008.8
20260505025420 65 313 0.0 1.7 0.00 0.00 0.00 52 1008.6
20260505025148 65 316 0.0 1.7 0.00 0.00 0.00 53 1008.6
20260505024419 66 146 0.0 1.7 0.00 0.00 0.00 52 1008.5
20260505023919 66 9 0.0 1.7 0.00 0.00 0.00 51 1008.5
20260505023419 66 11 0.0 2.6 0.00 0.00 0.00 50 1008.6
20260505022919 66 170 0.0 2.6 0.00 0.00 0.00 50 1008.4
20260505022420 66 169 0.0 2.6 0.00 0.00 0.00 50 1008.6
20260505021920 66 137 1.7 5.2 0.00 0.00 0.00 49 1008.4
20260505021420 67 146 0.0 5.2 0.00 0.00 0.00 49 1008.3
20260505020920 66 186 0.9 1.7 0.00 0.00 0.00 50 1008.5
20260505020420 66 140 1.7 1.7 0.00 0.00 0.00 49 1008.3
20260505015908 66 179 0.0 1.7 0.00 0.00 0.00 50 1008.4
20260505015408 65 324 0.0 2.6 0.00 0.00 0.00 50 1008.7
20260505014908 66 221 2.6 2.6 0.00 0.00 0.00 50 1008.6
20260505014355 66 121 2.6 2.6 0.00 0.00 0.00 49 1008.3
20260505013855 66 112 0.9 1.7 0.00 0.00 0.00 49 1008.4
20260505013355 66 118 0.0 2.6 0.00 0.00 0.00 49 1008.3
20260505012843 67 154 0.0 2.6 0.00 0.00 0.00 49 1008.7
20260505012828 67 143 2.6 2.6 0.00 0.00 0.00 48 1008.6
20260505011842 67 107 0.0 2.6 0.00 0.00 0.00 49 1008.6
20260505011331 67 151 0.0 1.7 0.00 0.00 0.00 49 1008.5
20260505010831 67 189 0.0 5.2 0.00 0.00 0.00 48 1008.2
20260505010329 67 178 0.9 5.2 0.00 0.00 0.00 49 1008.4
20260505010050 68 141 0.0 3.5 0.00 0.00 0.00 47 1008.2
20260505005330 68 215 0.0 3.5 0.00 0.00 0.00 47 1008.3
20260505004829 68 146 1.7 2.6 0.00 0.00 0.00 45 1008.3
20260505004552 69 185 2.6 2.6 0.00 0.00 0.00 46 1008.0
20260505003830 69 154 0.0 1.7 0.00 0.00 0.00 45 1008.0
20260505003329 69 104 0.0 0.9 0.00 0.00 0.00 45 1007.9
20260505002829 69 160 0.0 0.9 0.00 0.00 0.00 46 1007.9
20260505002330 69 177 0.0 0.9 0.00 0.00 0.00 46 1007.9
20260505001829 69 114 0.0 0.9 0.00 0.00 0.00 45 1008.0
20260505001329 69 98 0.0 2.6 0.00 0.00 0.00 45 1007.8
20260505000829 70 129 0.0 2.6 0.00 0.00 0.00 45 1007.7
20260505000329 70 134 1.7 2.6 0.00 0.00 0.00 44 1007.6
20260504235830 70 154 0.0 2.6 0.00 0.00 0.00 44 1007.8
20260504235329 70 163 0.9 2.6 0.00 0.00 0.00 43 1007.5
20260504234830 70 164 0.0 5.2 0.00 0.00 0.00 43 1007.5
20260504234330 71 163 0.0 5.2 0.00 0.00 0.00 43 1007.6
20260504233830 71 190 1.7 5.2 0.00 0.00 0.00 42 1007.7
20260504233329 71 110 1.7 5.2 0.00 0.00 0.00 42 1007.7
20260504232829 71 158 1.7 3.5 0.00 0.00 0.00 42 1007.4
20260504232329 71 154 0.0 3.5 0.00 0.00 0.00 42 1007.4
20260504231829 72 166 0.0 3.5 0.00 0.00 0.00 43 1007.7
20260504231329 72 198 0.0 5.2 0.00 0.00 0.00 42 1007.6
20260504230829 72 225 0.0 5.2 0.00 0.00 0.00 42 1007.6
20260504230329 73 138 1.7 5.2 0.00 0.00 0.00 41 1007.8
20260504225829 73 133 0.9 5.2 0.00 0.00 0.00 41 1007.7
20260504225551 73 216 0.9 5.2 0.00 0.00 0.00 40 1007.5
20260504224829 73 138 1.7 5.2 0.00 0.00 0.00 40 1007.5
20260504224330 73 161 1.7 6.1 0.00 0.00 0.00 41 1007.7
20260504223818 73 150 0.9 6.1 0.00 0.00 0.00 40 1007.8
20260504223318 73 305 2.6 6.1 0.00 0.00 0.00 39 1007.7
20260504222818 73 147 3.5 6.1 0.00 0.00 0.00 40 1007.8
20260504222318 73 110 1.7 6.1 0.00 0.00 0.00 40 1007.7
20260504221818 73 151 0.9 6.1 0.00 0.00 0.00 40 1007.9
20260504221535 74 305 0.9 7.0 0.00 0.00 0.00 40 1007.8
20260504220817 73 173 0.9 7.0 0.00 0.00 0.00 40 1007.8
20260504220317 73 140 2.6 7.8 0.00 0.00 0.00 39 1007.8
20260504220036 73 182 2.6 7.8 0.00 0.00 0.00 39 1007.8
20260504215318 73 101 1.7 6.1 0.00 0.00 0.00 40 1007.8
20260504215043 73 88 4.3 6.1 0.00 0.00 0.00 39 1007.9
20260504214318 73 317 0.0 7.0 0.00 0.00 0.00 40 1007.9
20260504213818 73 235 1.7 7.0 0.00 0.00 0.00 39 1007.9
20260504213318 73 77 0.0 5.2 0.00 0.00 0.00 39 1007.6
20260504212818 73 164 0.9 5.2 0.00 0.00 0.00 39 1007.8
20260504212305 73 331 0.0 6.1 0.00 0.00 0.00 41 1007.8
20260504211806 73 175 1.7 6.1 0.00 0.00 0.00 40 1007.6
20260504211305 73 198 2.6 7.0 0.00 0.00 0.00 40 1007.8
20260504210753 73 196 5.2 7.0 0.00 0.00 0.00 39 1007.7
20260504210254 73 102 0.9 6.1 0.00 0.00 0.00 40 1007.7
20260504210013 73 220 0.0 7.0 0.00 0.00 0.00 41 1007.7
20260504205242 73 171 0.0 7.0 0.00 0.00 0.00 39 1007.8
20260504205008 73 138 1.7 5.2 0.00 0.00 0.00 39 1007.8
20260504204242 73 89 0.0 7.8 0.00 0.00 0.00 41 1008.0
20260504203730 73 3 0.0 8.7 0.00 0.00 0.00 38 1007.9
20260504203230 73 147 5.2 8.7 0.00 0.00 0.00 39 1008.1
20260504202958 73 325 3.5 8.7 0.00 0.00 0.00 38 1008.1
20260504202230 73 107 1.7 8.7 0.00 0.00 0.00 39 1007.7
20260504201730 73 153 0.9 11.3 0.00 0.00 0.00 40 1008.1
20260504201457 72 122 0.9 11.3 0.00 0.00 0.00 39 1008.2
20260504200730 73 141 2.6 7.8 0.00 0.00 0.00 38 1008.4
20260504200231 73 135 2.6 7.8 0.00 0.00 0.00 39 1008.5
20260504195730 73 203 4.3 7.8 0.00 0.00 0.00 39 1008.6
20260504195454 73 150 0.9 6.1 0.00 0.00 0.00 39 1008.7
20260504194730 72 88 0.0 6.1 0.00 0.00 0.00 39 1008.5
20260504194230 73 300 1.7 7.8 0.00 0.00 0.00 38 1008.6
20260504193729 73 142 1.7 9.6 0.00 0.00 0.00 39 1008.9
20260504193230 73 131 2.6 9.6 0.00 0.00 0.00 40 1008.7
20260504192730 73 248 0.9 6.1 0.00 0.00 0.00 39 1008.9
20260504192229 73 145 1.7 6.1 0.00 0.00 0.00 39 1009.0
20260504191730 72 320 0.0 7.0 0.00 0.00 0.00 40 1009.2
20260504191450 73 113 0.9 7.0 0.00 0.00 0.00 39 1009.0
20260504190730 74 284 0.0 5.2 0.00 0.00 0.00 38 1009.1
20260504190230 74 25 0.0 5.2 0.00 0.00 0.00 41 1009.1
20260504185730 74 233 0.0 5.2 0.00 0.00 0.00 39 1009.4
20260504185456 72 315 0.9 7.0 0.00 0.00 0.00 38 1009.4
20260504184730 72 231 0.9 7.0 0.00 0.00 0.00 37 1009.6
20260504184230 72 272 0.9 7.8 0.00 0.00 0.00 39 1009.7
20260504183730 72 250 1.7 7.8 0.00 0.00 0.00 39 1009.6
20260504183230 73 195 0.9 6.1 0.00 0.00 0.00 39 1009.7
20260504182949 72 271 3.5 6.1 0.00 0.00 0.00 39 1009.9
20260504182217 71 85 0.9 7.8 0.00 0.00 0.00 38 1009.7